サンフランシスコ の空港の天気 - METARとTAF

サンフランシスコ国際空港 ( KSFO / SFO ) - アメリカ カリフォルニア州サンマテオ郡
飛行場実況気象(Metar)
観測時間07/17 01:56 PDT (07/17 08:56 UTC)
風向・風速西 5m/s
視程10km以上
天気現象
少しの雲 雲底高度 150m
気温13.3℃
湿度90%
気圧1015.5hPa
METARKSFO 170856Z 28009KT 10SM FEW005 13/12 A2999 RMK AO2 SLP155 T01330117 53004
過去の天気等 Google飛行場航空写真 Wunderground天気予報

過去48時間のMETAR

飛行場予報(TAF)
発表時間: 7/17 02:03 PDT (7/17 09:03 UTC)
予報対象時間: 17日2時 PDT ~ 18日5時 PDT
風向・風速西北西 4m/s
視程10km以上
全天の4割程度の雲 雲底高度 180m
17日3時 PDT から
風向・風速西北西 4m/s
視程10km以上
全天の8割程度の雲 雲底高度 180m
17日10時 PDT から
風向・風速北北西 5m/s
視程10km以上
全天の4割程度の雲 雲底高度 370m
17日14時 PDT から
風向・風速西北西 9m/s
視程10km以上
なし
17日21時 PDT から
風向・風速西北西 5m/s
視程10km以上
少しの雲 雲底高度 300m
18日3時 PDT から
風向・風速西 4m/s
視程10km以上
全天の4割程度の雲 雲底高度 370m
KSFO 170903Z 1709/1812 29008KT P6SM SCT006
FM171000 29007KT P6SM BKN006
FM171700 33009KT P6SM SCT012
FM172100 30017KT P6SM SKC
FM180400 30010KT P6SM FEW010
FM181000 28007KT P6SM SCT012